sensor_id;sensor_type;location;lat;lon;timestamp;temperature;humidity
40660;DHT22;26753;45.544;9.232;2024-01-30T10:27:06;11.40;99.90
40660;DHT22;26753;45.544;9.232;2024-01-30T10:32:08;10.10;99.90
40660;DHT22;26753;45.544;9.232;2024-01-30T10:37:10;9.90;99.90
40660;DHT22;26753;45.544;9.232;2024-01-30T10:39:45;9.70;99.90
40660;DHT22;26753;45.544;9.232;2024-01-30T10:47:49;11.40;99.90
40660;DHT22;26753;45.544;9.232;2024-01-30T10:50:21;10.70;99.90
40660;DHT22;26753;45.544;9.232;2024-01-30T10:53:05;12.70;99.90
40660;DHT22;26753;45.544;9.232;2024-01-30T10:55:39;11.20;99.90
40660;DHT22;26753;45.544;9.232;2024-01-30T10:58:05;9.30;99.90
40660;DHT22;26753;45.544;9.232;2024-01-30T11:03:02;10.00;99.90
40660;DHT22;26753;45.544;9.232;2024-01-30T11:05:29;13.30;99.90
40660;DHT22;26753;45.544;9.232;2024-01-30T11:08:22;11.40;99.90
40660;DHT22;26753;45.544;9.232;2024-01-30T11:10:57;13.60;99.90
40660;DHT22;26753;45.544;9.232;2024-01-30T11:13:30;10.40;99.90
40660;DHT22;26753;45.544;9.232;2024-01-30T11:16:09;12.40;99.90
40660;DHT22;26753;45.544;9.232;2024-01-30T11:18:36;13.50;99.90
40660;DHT22;26753;45.544;9.232;2024-01-30T11:21:05;11.50;99.90
40660;DHT22;26753;45.544;9.232;2024-01-30T11:23:34;14.00;99.90
40660;DHT22;26753;45.544;9.232;2024-01-30T11:26:04;11.90;99.90
40660;DHT22;26753;45.544;9.232;2024-01-30T11:28:40;11.00;99.90
40660;DHT22;26753;45.544;9.232;2024-01-30T11:33:36;13.90;99.90
40660;DHT22;26753;45.544;9.232;2024-01-30T11:36:38;13.50;99.90
40660;DHT22;26753;45.544;9.232;2024-01-30T11:39:13;13.60;99.90
40660;DHT22;26753;45.544;9.232;2024-01-30T11:41:52;12.80;99.90
40660;DHT22;26753;45.544;9.232;2024-01-30T11:44:27;14.50;99.90
40660;DHT22;26753;45.544;9.232;2024-01-30T11:46:53;13.90;99.90
40660;DHT22;26753;45.544;9.232;2024-01-30T11:49:30;13.00;99.90
40660;DHT22;26753;45.544;9.232;2024-01-30T11:52:06;14.40;99.90
40660;DHT22;26753;45.544;9.232;2024-01-30T11:54:41;13.50;99.30
40660;DHT22;26753;45.544;9.232;2024-01-30T11:57:30;13.70;99.40
40660;DHT22;26753;45.544;9.232;2024-01-30T12:00:18;13.70;98.80
40660;DHT22;26753;45.544;9.232;2024-01-30T12:03:05;14.00;98.20
40660;DHT22;26753;45.544;9.232;2024-01-30T12:05:59;13.60;98.40
40660;DHT22;26753;45.544;9.232;2024-01-30T12:08:27;14.70;99.20
40660;DHT22;26753;45.544;9.232;2024-01-30T12:10:59;12.70;98.60
40660;DHT22;26753;45.544;9.232;2024-01-30T12:13:28;13.90;98.60
40660;DHT22;26753;45.544;9.232;2024-01-30T12:16:00;16.20;97.70
40660;DHT22;26753;45.544;9.232;2024-01-30T12:18:36;15.80;96.70
40660;DHT22;26753;45.544;9.232;2024-01-30T12:21:11;14.90;95.40
40660;DHT22;26753;45.544;9.232;2024-01-30T12:23:40;15.80;95.00
40660;DHT22;26753;45.544;9.232;2024-01-30T12:26:26;15.30;93.90
40660;DHT22;26753;45.544;9.232;2024-01-30T12:28:58;15.60;94.60
40660;DHT22;26753;45.544;9.232;2024-01-30T12:31:32;16.20;93.00
40660;DHT22;26753;45.544;9.232;2024-01-30T12:34:01;17.80;90.50
40660;DHT22;26753;45.544;9.232;2024-01-30T12:36:28;20.40;84.10
40660;DHT22;26753;45.544;9.232;2024-01-30T12:38:56;19.60;80.90
40660;DHT22;26753;45.544;9.232;2024-01-30T12:41:22;18.60;81.30
40660;DHT22;26753;45.544;9.232;2024-01-30T12:43:57;18.20;81.90
40660;DHT22;26753;45.544;9.232;2024-01-30T12:46:38;18.00;80.00
40660;DHT22;26753;45.544;9.232;2024-01-30T12:49:07;19.60;79.30
40660;DHT22;26753;45.544;9.232;2024-01-30T12:51:42;25.80;69.90
40660;DHT22;26753;45.544;9.232;2024-01-30T12:54:29;30.10;58.70
40660;DHT22;26753;45.544;9.232;2024-01-30T12:57:05;32.20;48.70
40660;DHT22;26753;45.544;9.232;2024-01-30T12:59:34;33.50;47.10
40660;DHT22;26753;45.544;9.232;2024-01-30T13:02:04;34.10;44.90
40660;DHT22;26753;45.544;9.232;2024-01-30T13:04:33;35.50;43.10
40660;DHT22;26753;45.544;9.232;2024-01-30T13:07:11;35.50;41.90
40660;DHT22;26753;45.544;9.232;2024-01-30T13:09:36;36.10;40.00
40660;DHT22;26753;45.544;9.232;2024-01-30T13:12:49;36.60;39.80
40660;DHT22;26753;45.544;9.232;2024-01-30T13:18:26;36.90;37.30
40660;DHT22;26753;45.544;9.232;2024-01-30T13:20:55;36.40;36.30
40660;DHT22;26753;45.544;9.232;2024-01-30T13:23:21;36.20;36.80
40660;DHT22;26753;45.544;9.232;2024-01-30T13:25:49;35.50;36.20
40660;DHT22;26753;45.544;9.232;2024-01-30T13:28:15;35.70;36.40
40660;DHT22;26753;45.544;9.232;2024-01-30T13:30:41;36.80;36.30
40660;DHT22;26753;45.544;9.232;2024-01-30T13:33:07;38.20;36.20
40660;DHT22;26753;45.544;9.232;2024-01-30T13:35:33;39.80;35.30
40660;DHT22;26753;45.544;9.232;2024-01-30T13:37:59;39.90;34.20
40660;DHT22;26753;45.544;9.232;2024-01-30T13:40:24;40.40;33.70
40660;DHT22;26753;45.544;9.232;2024-01-30T13:42:50;40.80;33.40
40660;DHT22;26753;45.544;9.232;2024-01-30T13:45:16;40.20;32.60
40660;DHT22;26753;45.544;9.232;2024-01-30T13:47:42;40.00;32.70
40660;DHT22;26753;45.544;9.232;2024-01-30T13:50:08;40.90;32.10
40660;DHT22;26753;45.544;9.232;2024-01-30T13:52:35;40.20;32.20
40660;DHT22;26753;45.544;9.232;2024-01-30T13:55:06;40.60;31.80
40660;DHT22;26753;45.544;9.232;2024-01-30T13:57:39;40.80;32.00
40660;DHT22;26753;45.544;9.232;2024-01-30T14:00:05;41.00;31.10
40660;DHT22;26753;45.544;9.232;2024-01-30T14:02:37;41.20;31.50
40660;DHT22;26753;45.544;9.232;2024-01-30T14:05:04;40.90;30.70
40660;DHT22;26753;45.544;9.232;2024-01-30T14:07:33;41.00;31.00
40660;DHT22;26753;45.544;9.232;2024-01-30T14:09:59;41.50;30.10
40660;DHT22;26753;45.544;9.232;2024-01-30T14:12:25;41.00;30.20
40660;DHT22;26753;45.544;9.232;2024-01-30T14:14:51;41.20;30.20
40660;DHT22;26753;45.544;9.232;2024-01-30T14:17:17;39.70;30.00
40660;DHT22;26753;45.544;9.232;2024-01-30T14:19:43;39.10;30.30
40660;DHT22;26753;45.544;9.232;2024-01-30T14:28:15;40.90;29.70
40660;DHT22;26753;45.544;9.232;2024-01-30T14:31:11;40.60;29.50
40660;DHT22;26753;45.544;9.232;2024-01-30T14:33:40;38.80;29.50
40660;DHT22;26753;45.544;9.232;2024-01-30T14:36:16;37.20;29.90
40660;DHT22;26753;45.544;9.232;2024-01-30T14:38:48;36.30;30.10
40660;DHT22;26753;45.544;9.232;2024-01-30T14:41:43;34.00;30.20
40660;DHT22;26753;45.544;9.232;2024-01-30T14:44:23;32.10;31.00
40660;DHT22;26753;45.544;9.232;2024-01-30T14:47:12;32.20;31.50
40660;DHT22;26753;45.544;9.232;2024-01-30T14:49:45;33.80;31.40
40660;DHT22;26753;45.544;9.232;2024-01-30T14:52:11;33.10;31.10
40660;DHT22;26753;45.544;9.232;2024-01-30T14:54:40;32.40;31.40
40660;DHT22;26753;45.544;9.232;2024-01-30T14:57:06;32.30;31.60
40660;DHT22;26753;45.544;9.232;2024-01-30T14:59:33;32.70;32.10
40660;DHT22;26753;45.544;9.232;2024-01-30T15:02:08;32.90;32.00
40660;DHT22;26753;45.544;9.232;2024-01-30T15:04:52;31.60;31.90
40660;DHT22;26753;45.544;9.232;2024-01-30T15:07:24;30.60;32.90
40660;DHT22;26753;45.544;9.232;2024-01-30T15:09:50;30.10;33.80
40660;DHT22;26753;45.544;9.232;2024-01-30T15:12:19;29.60;33.90
40660;DHT22;26753;45.544;9.232;2024-01-30T15:14:47;27.70;34.80
40660;DHT22;26753;45.544;9.232;2024-01-30T15:17:22;26.20;36.20
40660;DHT22;26753;45.544;9.232;2024-01-30T15:19:48;25.90;37.20
40660;DHT22;26753;45.544;9.232;2024-01-30T15:22:20;24.60;38.00
40660;DHT22;26753;45.544;9.232;2024-01-30T15:24:46;23.40;39.50
40660;DHT22;26753;45.544;9.232;2024-01-30T15:27:12;22.00;41.40
40660;DHT22;26753;45.544;9.232;2024-01-30T15:29:41;21.00;43.00
40660;DHT22;26753;45.544;9.232;2024-01-30T15:32:07;20.10;44.50
40660;DHT22;26753;45.544;9.232;2024-01-30T15:34:33;19.40;45.90
40660;DHT22;26753;45.544;9.232;2024-01-30T15:36:59;18.90;47.10
40660;DHT22;26753;45.544;9.232;2024-01-30T15:39:31;18.50;48.30
40660;DHT22;26753;45.544;9.232;2024-01-30T15:42:12;18.10;49.30
40660;DHT22;26753;45.544;9.232;2024-01-30T15:44:38;17.70;50.40
40660;DHT22;26753;45.544;9.232;2024-01-30T15:47:04;17.40;51.20
40660;DHT22;26753;45.544;9.232;2024-01-30T15:49:30;17.00;52.10
40660;DHT22;26753;45.544;9.232;2024-01-30T15:52:02;16.60;53.10
40660;DHT22;26753;45.544;9.232;2024-01-30T15:54:45;16.20;54.00
40660;DHT22;26753;45.544;9.232;2024-01-30T15:57:15;16.00;54.80
40660;DHT22;26753;45.544;9.232;2024-01-30T15:59:42;15.80;55.50
40660;DHT22;26753;45.544;9.232;2024-01-30T16:02:07;15.50;56.30
40660;DHT22;26753;45.544;9.232;2024-01-30T16:04:33;15.10;57.40
40660;DHT22;26753;45.544;9.232;2024-01-30T16:07:02;14.90;58.10
40660;DHT22;26753;45.544;9.232;2024-01-30T16:09:38;14.60;59.20
40660;DHT22;26753;45.544;9.232;2024-01-30T16:12:04;14.30;60.20
40660;DHT22;26753;45.544;9.232;2024-01-30T16:14:32;13.70;61.10
40660;DHT22;26753;45.544;9.232;2024-01-30T16:16:59;14.50;61.70
40660;DHT22;26753;45.544;9.232;2024-01-30T16:19:34;12.60;61.40
40660;DHT22;26753;45.544;9.232;2024-01-30T16:22:37;13.80;62.90
40660;DHT22;26753;45.544;9.232;2024-01-30T16:25:17;13.70;64.20
40660;DHT22;26753;45.544;9.232;2024-01-30T16:27:43;13.40;64.00
40660;DHT22;26753;45.544;9.232;2024-01-30T16:30:37;12.50;66.10
40660;DHT22;26753;45.544;9.232;2024-01-30T16:33:02;12.80;67.50
40660;DHT22;26753;45.544;9.232;2024-01-30T16:35:36;13.70;69.30
40660;DHT22;26753;45.544;9.232;2024-01-30T16:38:08;12.40;69.00
40660;DHT22;26753;45.544;9.232;2024-01-30T16:40:40;13.40;69.50
40660;DHT22;26753;45.544;9.232;2024-01-30T16:43:12;13.30;69.30
40660;DHT22;26753;45.544;9.232;2024-01-30T16:45:51;12.20;69.30
40660;DHT22;26753;45.544;9.232;2024-01-30T16:48:17;12.80;69.60
40660;DHT22;26753;45.544;9.232;2024-01-30T16:50:46;13.10;71.20
40660;DHT22;26753;45.544;9.232;2024-01-30T16:53:14;13.30;72.50
40660;DHT22;26753;45.544;9.232;2024-01-30T16:55:40;13.80;73.20
40660;DHT22;26753;45.544;9.232;2024-01-30T16:58:05;12.80;74.10
40660;DHT22;26753;45.544;9.232;2024-01-30T17:00:34;12.80;75.60
40660;DHT22;26753;45.544;9.232;2024-01-30T17:02:59;13.20;76.40
40660;DHT22;26753;45.544;9.232;2024-01-30T17:05:28;12.80;77.10
40660;DHT22;26753;45.544;9.232;2024-01-30T17:10:20;13.60;81.60
40660;DHT22;26753;45.544;9.232;2024-01-30T17:12:46;11.80;82.60
40660;DHT22;26753;45.544;9.232;2024-01-30T17:20:04;12.40;89.70
40660;DHT22;26753;45.544;9.232;2024-01-30T17:22:31;11.10;90.40
40660;DHT22;26753;45.544;9.232;2024-01-30T17:24:56;10.50;92.60
40660;DHT22;26753;45.544;9.232;2024-01-30T17:27:22;10.90;94.00
40660;DHT22;26753;45.544;9.232;2024-01-30T17:29:48;11.40;96.50
40660;DHT22;26753;45.544;9.232;2024-01-30T17:32:14;11.20;96.90
40660;DHT22;26753;45.544;9.232;2024-01-30T17:34:40;10.30;99.10
40660;DHT22;26753;45.544;9.232;2024-01-30T17:37:05;10.60;99.00
40660;DHT22;26753;45.544;9.232;2024-01-30T17:39:31;10.50;99.90
40660;DHT22;26753;45.544;9.232;2024-01-30T17:41:57;9.80;99.90
40660;DHT22;26753;45.544;9.232;2024-01-30T17:44:23;11.50;99.90
40660;DHT22;26753;45.544;9.232;2024-01-30T17:46:50;12.20;99.90
40660;DHT22;26753;45.544;9.232;2024-01-30T17:49:16;9.60;99.90
40660;DHT22;26753;45.544;9.232;2024-01-30T17:51:42;9.10;99.90
40660;DHT22;26753;45.544;9.232;2024-01-30T17:54:08;12.50;99.90
40660;DHT22;26753;45.544;9.232;2024-01-30T17:56:34;10.10;99.90
40660;DHT22;26753;45.544;9.232;2024-01-30T17:59:00;11.10;99.90
40660;DHT22;26753;45.544;9.232;2024-01-30T18:01:28;10.90;99.90
40660;DHT22;26753;45.544;9.232;2024-01-30T18:03:54;11.50;99.90
40660;DHT22;26753;45.544;9.232;2024-01-30T18:08:50;9.50;99.90
40660;DHT22;26753;45.544;9.232;2024-01-30T18:11:16;10.60;99.90
40660;DHT22;26753;45.544;9.232;2024-01-30T18:13:42;11.10;99.90
40660;DHT22;26753;45.544;9.232;2024-01-30T18:16:10;10.00;99.90
40660;DHT22;26753;45.544;9.232;2024-01-30T18:21:06;10.10;99.90
40660;DHT22;26753;45.544;9.232;2024-01-30T18:23:33;8.00;99.90
40660;DHT22;26753;45.544;9.232;2024-01-30T18:25:59;10.50;99.90
40660;DHT22;26753;45.544;9.232;2024-01-30T18:28:26;10.40;99.90
40660;DHT22;26753;45.544;9.232;2024-01-30T18:30:52;9.60;99.90
40660;DHT22;26753;45.544;9.232;2024-01-30T18:33:18;11.40;99.90
40660;DHT22;26753;45.544;9.232;2024-01-30T18:35:44;12.10;99.90
40660;DHT22;26753;45.544;9.232;2024-01-30T18:38:13;12.00;99.90
40660;DHT22;26753;45.544;9.232;2024-01-30T18:40:42;10.30;99.90
40660;DHT22;26753;45.544;9.232;2024-01-30T18:43:11;11.50;99.90
40660;DHT22;26753;45.544;9.232;2024-01-30T18:45:36;11.90;99.90
40660;DHT22;26753;45.544;9.232;2024-01-30T18:48:02;11.60;99.90
40660;DHT22;26753;45.544;9.232;2024-01-30T18:50:31;10.90;99.90
40660;DHT22;26753;45.544;9.232;2024-01-30T18:52:57;11.00;99.90
40660;DHT22;26753;45.544;9.232;2024-01-30T18:55:22;9.60;99.90
40660;DHT22;26753;45.544;9.232;2024-01-30T19:00:15;10.90;99.90
40660;DHT22;26753;45.544;9.232;2024-01-30T19:02:40;11.70;99.90
40660;DHT22;26753;45.544;9.232;2024-01-30T19:05:06;9.80;99.90
40660;DHT22;26753;45.544;9.232;2024-01-30T19:12:24;12.50;99.90
40660;DHT22;26753;45.544;9.232;2024-01-30T19:14:50;8.90;99.90
40660;DHT22;26753;45.544;9.232;2024-01-30T19:19:52;8.20;99.90
40660;DHT22;26753;45.544;9.232;2024-01-30T19:27:10;10.30;99.90
40660;DHT22;26753;45.544;9.232;2024-01-30T19:29:36;10.20;99.90
40660;DHT22;26753;45.544;9.232;2024-01-30T19:32:02;9.40;99.90
40660;DHT22;26753;45.544;9.232;2024-01-30T19:34:28;12.00;99.90
40660;DHT22;26753;45.544;9.232;2024-01-30T19:36:54;10.00;99.90
40660;DHT22;26753;45.544;9.232;2024-01-30T19:39:20;10.20;99.90
40660;DHT22;26753;45.544;9.232;2024-01-30T19:41:46;12.20;99.90
40660;DHT22;26753;45.544;9.232;2024-01-30T19:44:12;7.40;99.90
40660;DHT22;26753;45.544;9.232;2024-01-30T19:49:07;11.80;99.90
40660;DHT22;26753;45.544;9.232;2024-01-30T19:51:35;8.80;99.90
40660;DHT22;26753;45.544;9.232;2024-01-30T19:54:01;8.20;99.90
40660;DHT22;26753;45.544;9.232;2024-01-30T19:56:32;9.60;99.90
40660;DHT22;26753;45.544;9.232;2024-01-30T19:58:58;8.70;99.90
40660;DHT22;26753;45.544;9.232;2024-01-30T20:01:24;10.20;99.90
40660;DHT22;26753;45.544;9.232;2024-01-30T20:03:49;6.80;99.90
40660;DHT22;26753;45.544;9.232;2024-01-30T20:08:41;11.60;99.90
40660;DHT22;26753;45.544;9.232;2024-01-30T20:13:40;9.20;99.90
40660;DHT22;26753;45.544;9.232;2024-01-30T20:16:07;9.30;99.90
40660;DHT22;26753;45.544;9.232;2024-01-30T20:18:33;7.80;99.90
40660;DHT22;26753;45.544;9.232;2024-01-30T20:21:01;10.60;99.90
40660;DHT22;26753;45.544;9.232;2024-01-30T20:23:27;10.00;99.90
40660;DHT22;26753;45.544;9.232;2024-01-30T20:28:21;10.70;99.90
40660;DHT22;26753;45.544;9.232;2024-01-30T20:38:08;8.80;99.90
40660;DHT22;26753;45.544;9.232;2024-01-30T20:43:00;8.10;99.90
40660;DHT22;26753;45.544;9.232;2024-01-30T20:47:52;9.80;99.90
40660;DHT22;26753;45.544;9.232;2024-01-30T20:50:17;10.30;99.90
40660;DHT22;26753;45.544;9.232;2024-01-30T20:57:35;9.70;99.90
40660;DHT22;26753;45.544;9.232;2024-01-30T21:00:05;10.00;99.90
40660;DHT22;26753;45.544;9.232;2024-01-30T21:02:34;7.30;99.90
40660;DHT22;26753;45.544;9.232;2024-01-30T21:05:04;10.50;99.90
40660;DHT22;26753;45.544;9.232;2024-01-30T21:07:30;10.80;99.90
40660;DHT22;26753;45.544;9.232;2024-01-30T21:09:59;8.90;99.90
40660;DHT22;26753;45.544;9.232;2024-01-30T21:22:09;9.10;99.90
40660;DHT22;26753;45.544;9.232;2024-01-30T21:24:35;7.20;99.90
40660;DHT22;26753;45.544;9.232;2024-01-30T21:29:27;8.20;99.90
40660;DHT22;26753;45.544;9.232;2024-01-30T21:31:53;10.00;99.90
40660;DHT22;26753;45.544;9.232;2024-01-30T21:36:44;9.40;99.90
40660;DHT22;26753;45.544;9.232;2024-01-30T21:39:13;6.50;99.90
40660;DHT22;26753;45.544;9.232;2024-01-30T21:41:39;11.50;99.90
40660;DHT22;26753;45.544;9.232;2024-01-30T21:46:34;11.40;99.90
40660;DHT22;26753;45.544;9.232;2024-01-30T21:49:00;10.20;99.90
40660;DHT22;26753;45.544;9.232;2024-01-30T21:54:00;7.90;99.90
40660;DHT22;26753;45.544;9.232;2024-01-30T21:56:26;10.90;99.90
40660;DHT22;26753;45.544;9.232;2024-01-30T22:09:13;7.60;99.90
40660;DHT22;26753;45.544;9.232;2024-01-30T22:11:39;9.30;99.90
40660;DHT22;26753;45.544;9.232;2024-01-30T22:14:05;11.00;99.90
40660;DHT22;26753;45.544;9.232;2024-01-30T22:23:57;10.70;99.90
40660;DHT22;26753;45.544;9.232;2024-01-30T22:28:52;7.80;99.90
40660;DHT22;26753;45.544;9.232;2024-01-30T22:33:47;10.60;99.90
40660;DHT22;26753;45.544;9.232;2024-01-30T22:41:08;9.00;99.90
40660;DHT22;26753;45.544;9.232;2024-01-30T22:55:45;6.60;99.90
40660;DHT22;26753;45.544;9.232;2024-01-30T23:17:43;7.00;99.90
40660;DHT22;26753;45.544;9.232;2024-01-30T23:22:35;8.10;99.90
40660;DHT22;26753;45.544;9.232;2024-01-30T23:29:54;6.30;99.90
40660;DHT22;26753;45.544;9.232;2024-01-30T23:46:57;11.40;99.90
40660;DHT22;26753;45.544;9.232;2024-01-30T23:51:52;9.30;99.90
